Aeroporto :
LOGIN :

Iscrizione | Disclaimer

   EN    FR    IT 

 










Sommario :    VFR   VFR Marginale   IFR   IFR Intensivo   IFR Molto Intensivo
Visibilità : 
Base nubi : 
>= 8 km
>= 3000ft
5 / 8 km
1000 / 3000 ft
1500m / 5 km
500 / 1000 ft
800 / 1500m
200 / 500 ft
< 800m
< 200 ft
Simboli :   Temporali  Nebbia  Neve Forte  Precipitazioni Forti  Vento > 20 kt
SIGMETs :   Varie  Temporali  Ghiacco  Turbolenza  Onda orograficha  Ceneri Vulcaniche






- Altitudine del aeroporto : 289 ft
- Codice IATA : ZAD


LDZD - Zadar

ULTIMO METAR :
  • 240930Z VRB01KT 9999 FEW025 SCT040 BKN070 12/04 Q1006 TEMPO 24010KT TSRA FEW025CB BKN040

METARs OBSOLETI :
  • 240900Z 31004KT 250V010 9999 FEW025 SCT040 BKN070 12/05 Q1006 TEMPO 24010KT TSRA FEW025CB BKN040
  • 240830Z VRB02KT 9999 FEW025 SCT040 BKN070 12/05 Q1006 TEMPO 24010KT TSRA FEW025CB BKN040
  • 240800Z VRB01KT 9999 FEW025 SCT040 BKN070 13/06 Q1006 NOSIG
  • 240730Z 15003KT 080V240 9999 FEW040 12/07 Q1006 NOSIG
  • 240700Z 13004KT 9999 FEW040 BKN073 10/08 Q1006 NOSIG
  • 240630Z 12003KT 080V160 9999 FEW040 BKN073 10/08 Q1006 NOSIG
  • 240600Z 13003KT 080V170 9999 FEW030 SCT045 BKN073 09/08 Q1006 NOSIG
  • 240530Z VRB02KT 9999 FEW025 SCT050 BKN073 09/08 Q1006 NOSIG
  • 240500Z 14003KT 9999 SCT040 08/08 Q1006 NOSIG

TAF TAF LDZD
Valido dal 24 a 06 ore il 25 a 06 ore UTC


240525Z 2406/2506 VRB02KT 9999 SCT040 TX13/2414Z TN04/2504Z
TEMPO 2407/2412 27008KT
PROB30
TEMPO 2407/2416 VRB15KT 4000 TSRA FEW025CB BKN030
BECMG 2412/2414 12008KT
BECMG 2416/2418 10005KT



MetMap, La meteo Aeronautica in un colpo d'occhio ! - Copyright ORBIFLY Dicembre 2007 - Disclaimer

ORBIFLY MET'MAP TEAM :

Programmazione e sviluppo : Alexandra Zaïnal
Concezione : Baudouin d'Aumeries
Supporto tecnico e logistico : Manuel Goepfert
Aiuto : Marc-Olivier Méhu
Aiuto per la traduzione : Arnaldo La Scala




FONTI E CREDITI :

   NOAA